sensor_id;sensor_type;location;lat;lon;timestamp;temperature;humidity
8372;DHT22;4223;48.724;8.982;2022-09-03T00:00:53;15.90;1.00
8372;DHT22;4223;48.724;8.982;2022-09-03T00:03:26;15.90;99.90
8372;DHT22;4223;48.724;8.982;2022-09-03T00:06:02;15.90;1.00
8372;DHT22;4223;48.724;8.982;2022-09-03T00:08:33;16.00;1.00
8372;DHT22;4223;48.724;8.982;2022-09-03T00:11:09;16.00;1.00
8372;DHT22;4223;48.724;8.982;2022-09-03T00:13:43;16.00;1.00
8372;DHT22;4223;48.724;8.982;2022-09-03T00:16:12;16.00;99.90
8372;DHT22;4223;48.724;8.982;2022-09-03T00:18:46;16.00;1.00
8372;DHT22;4223;48.724;8.982;2022-09-03T00:21:16;16.00;1.00
8372;DHT22;4223;48.724;8.982;2022-09-03T00:23:45;16.00;1.00
8372;DHT22;4223;48.724;8.982;2022-09-03T00:26:21;16.00;99.90
8372;DHT22;4223;48.724;8.982;2022-09-03T00:28:55;16.00;1.00
8372;DHT22;4223;48.724;8.982;2022-09-03T00:31:28;16.00;11.90
8372;DHT22;4223;48.724;8.982;2022-09-03T00:34:01;16.00;99.90
8372;DHT22;4223;48.724;8.982;2022-09-03T00:36:34;16.00;99.90
8372;DHT22;4223;48.724;8.982;2022-09-03T00:39:08;16.00;1.00
8372;DHT22;4223;48.724;8.982;2022-09-03T00:41:38;16.00;1.00
8372;DHT22;4223;48.724;8.982;2022-09-03T00:44:19;16.00;1.00
8372;DHT22;4223;48.724;8.982;2022-09-03T00:46:56;15.90;99.90
8372;DHT22;4223;48.724;8.982;2022-09-03T00:49:36;15.90;99.90
8372;DHT22;4223;48.724;8.982;2022-09-03T00:52:16;15.90;1.00
8372;DHT22;4223;48.724;8.982;2022-09-03T00:54:51;15.90;32.70
8372;DHT22;4223;48.724;8.982;2022-09-03T00:57:32;15.90;99.90
8372;DHT22;4223;48.724;8.982;2022-09-03T01:00:05;15.80;7.10
8372;DHT22;4223;48.724;8.982;2022-09-03T01:02:44;15.80;1.00
8372;DHT22;4223;48.724;8.982;2022-09-03T01:05:26;15.80;99.90
8372;DHT22;4223;48.724;8.982;2022-09-03T01:08:04;15.80;94.70
8372;DHT22;4223;48.724;8.982;2022-09-03T01:10:41;15.80;1.00
8372;DHT22;4223;48.724;8.982;2022-09-03T01:13:15;15.80;1.00
8372;DHT22;4223;48.724;8.982;2022-09-03T01:15:51;15.70;99.90
8372;DHT22;4223;48.724;8.982;2022-09-03T01:18:27;15.80;21.90
8372;DHT22;4223;48.724;8.982;2022-09-03T01:21:08;15.80;99.90
8372;DHT22;4223;48.724;8.982;2022-09-03T01:24:11;15.80;99.90
8372;DHT22;4223;48.724;8.982;2022-09-03T01:26:59;15.80;1.00
8372;DHT22;4223;48.724;8.982;2022-09-03T01:29:35;15.80;1.00
8372;DHT22;4223;48.724;8.982;2022-09-03T01:32:07;15.80;1.00
8372;DHT22;4223;48.724;8.982;2022-09-03T01:34:45;15.80;88.40
8372;DHT22;4223;48.724;8.982;2022-09-03T01:37:21;15.80;99.90
8372;DHT22;4223;48.724;8.982;2022-09-03T01:40:02;15.80;1.00
8372;DHT22;4223;48.724;8.982;2022-09-03T01:42:35;15.80;1.00
8372;DHT22;4223;48.724;8.982;2022-09-03T01:45:41;15.70;1.00
8372;DHT22;4223;48.724;8.982;2022-09-03T01:48:26;15.70;99.90
8372;DHT22;4223;48.724;8.982;2022-09-03T01:51:02;15.70;1.00
8372;DHT22;4223;48.724;8.982;2022-09-03T01:53:43;15.70;1.00
8372;DHT22;4223;48.724;8.982;2022-09-03T01:56:24;15.70;99.90
8372;DHT22;4223;48.724;8.982;2022-09-03T01:58:59;15.70;1.00
8372;DHT22;4223;48.724;8.982;2022-09-03T02:01:36;15.70;1.00
8372;DHT22;4223;48.724;8.982;2022-09-03T02:04:13;15.70;1.00
8372;DHT22;4223;48.724;8.982;2022-09-03T02:06:42;15.70;1.00
8372;DHT22;4223;48.724;8.982;2022-09-03T02:09:13;15.60;1.00
8372;DHT22;4223;48.724;8.982;2022-09-03T02:11:41;15.50;1.00
8372;DHT22;4223;48.724;8.982;2022-09-03T02:14:08;15.50;1.00
8372;DHT22;4223;48.724;8.982;2022-09-03T02:16:37;15.50;1.00
8372;DHT22;4223;48.724;8.982;2022-09-03T02:19:07;15.50;1.00
8372;DHT22;4223;48.724;8.982;2022-09-03T02:21:37;15.50;1.00
8372;DHT22;4223;48.724;8.982;2022-09-03T02:24:06;15.40;1.00
8372;DHT22;4223;48.724;8.982;2022-09-03T02:26:33;15.40;1.00
8372;DHT22;4223;48.724;8.982;2022-09-03T02:29:01;15.40;1.00
8372;DHT22;4223;48.724;8.982;2022-09-03T02:31:28;15.40;1.00
8372;DHT22;4223;48.724;8.982;2022-09-03T02:33:58;15.40;1.00
8372;DHT22;4223;48.724;8.982;2022-09-03T02:36:26;15.40;1.00
8372;DHT22;4223;48.724;8.982;2022-09-03T02:38:54;15.40;1.00
8372;DHT22;4223;48.724;8.982;2022-09-03T02:41:20;15.40;1.00
8372;DHT22;4223;48.724;8.982;2022-09-03T02:43:50;15.40;1.00
8372;DHT22;4223;48.724;8.982;2022-09-03T02:46:21;15.30;1.00
8372;DHT22;4223;48.724;8.982;2022-09-03T02:48:51;15.30;1.00
8372;DHT22;4223;48.724;8.982;2022-09-03T02:51:19;15.20;1.00
8372;DHT22;4223;48.724;8.982;2022-09-03T02:53:46;15.20;1.00
8372;DHT22;4223;48.724;8.982;2022-09-03T02:56:13;15.10;1.00
8372;DHT22;4223;48.724;8.982;2022-09-03T02:58:40;15.10;1.00
8372;DHT22;4223;48.724;8.982;2022-09-03T03:01:07;15.00;1.00
8372;DHT22;4223;48.724;8.982;2022-09-03T03:03:34;15.00;1.00
8372;DHT22;4223;48.724;8.982;2022-09-03T03:06:03;15.00;1.00
8372;DHT22;4223;48.724;8.982;2022-09-03T03:08:32;15.00;1.00
8372;DHT22;4223;48.724;8.982;2022-09-03T03:11:00;14.90;1.00
8372;DHT22;4223;48.724;8.982;2022-09-03T03:13:27;14.80;1.00
8372;DHT22;4223;48.724;8.982;2022-09-03T03:15:56;14.70;1.00
8372;DHT22;4223;48.724;8.982;2022-09-03T03:18:23;14.70;1.00
8372;DHT22;4223;48.724;8.982;2022-09-03T03:20:50;14.60;1.00
8372;DHT22;4223;48.724;8.982;2022-09-03T03:23:17;14.60;1.00
8372;DHT22;4223;48.724;8.982;2022-09-03T03:25:45;14.60;1.00
8372;DHT22;4223;48.724;8.982;2022-09-03T03:28:12;14.60;1.00
8372;DHT22;4223;48.724;8.982;2022-09-03T03:30:39;14.60;1.00
8372;DHT22;4223;48.724;8.982;2022-09-03T03:33:07;14.50;1.00
8372;DHT22;4223;48.724;8.982;2022-09-03T03:35:34;14.50;1.00
8372;DHT22;4223;48.724;8.982;2022-09-03T03:38:02;14.40;1.00
8372;DHT22;4223;48.724;8.982;2022-09-03T03:40:29;14.40;1.00
8372;DHT22;4223;48.724;8.982;2022-09-03T03:42:58;14.40;1.00
8372;DHT22;4223;48.724;8.982;2022-09-03T03:45:25;14.40;1.00
8372;DHT22;4223;48.724;8.982;2022-09-03T03:47:56;14.40;1.00
8372;DHT22;4223;48.724;8.982;2022-09-03T03:50:23;14.40;1.00
8372;DHT22;4223;48.724;8.982;2022-09-03T03:52:50;14.40;1.00
8372;DHT22;4223;48.724;8.982;2022-09-03T03:55:16;14.40;1.00
8372;DHT22;4223;48.724;8.982;2022-09-03T03:57:43;14.40;1.00
8372;DHT22;4223;48.724;8.982;2022-09-03T04:00:13;14.40;4.40
8372;DHT22;4223;48.724;8.982;2022-09-03T04:02:40;14.40;1.00
8372;DHT22;4223;48.724;8.982;2022-09-03T04:05:08;14.50;1.00
8372;DHT22;4223;48.724;8.982;2022-09-03T04:07:35;14.60;1.00
8372;DHT22;4223;48.724;8.982;2022-09-03T04:10:02;14.60;1.00
8372;DHT22;4223;48.724;8.982;2022-09-03T04:12:28;14.70;1.00
8372;DHT22;4223;48.724;8.982;2022-09-03T04:14:55;14.70;1.00
8372;DHT22;4223;48.724;8.982;2022-09-03T04:17:23;14.80;1.00
8372;DHT22;4223;48.724;8.982;2022-09-03T04:19:50;14.90;1.00
8372;DHT22;4223;48.724;8.982;2022-09-03T04:22:17;14.90;1.00
8372;DHT22;4223;48.724;8.982;2022-09-03T04:24:45;14.90;1.00
8372;DHT22;4223;48.724;8.982;2022-09-03T04:27:12;15.00;1.00
8372;DHT22;4223;48.724;8.982;2022-09-03T04:29:38;15.00;1.00
8372;DHT22;4223;48.724;8.982;2022-09-03T04:32:05;15.10;1.00
8372;DHT22;4223;48.724;8.982;2022-09-03T04:34:51;15.20;1.00
8372;DHT22;4223;48.724;8.982;2022-09-03T04:37:18;15.30;1.00
8372;DHT22;4223;48.724;8.982;2022-09-03T04:39:45;15.30;1.00
8372;DHT22;4223;48.724;8.982;2022-09-03T04:42:12;15.40;1.00
8372;DHT22;4223;48.724;8.982;2022-09-03T04:44:39;15.40;1.00
8372;DHT22;4223;48.724;8.982;2022-09-03T04:47:06;15.50;1.00
8372;DHT22;4223;48.724;8.982;2022-09-03T04:49:33;15.50;1.00
8372;DHT22;4223;48.724;8.982;2022-09-03T04:52:02;15.60;1.00
8372;DHT22;4223;48.724;8.982;2022-09-03T04:54:29;15.60;1.00
8372;DHT22;4223;48.724;8.982;2022-09-03T04:56:56;15.70;1.00
8372;DHT22;4223;48.724;8.982;2022-09-03T04:59:22;15.70;1.00
8372;DHT22;4223;48.724;8.982;2022-09-03T05:01:49;15.70;1.00
8372;DHT22;4223;48.724;8.982;2022-09-03T05:04:17;15.70;1.00
8372;DHT22;4223;48.724;8.982;2022-09-03T05:06:44;15.80;1.00
8372;DHT22;4223;48.724;8.982;2022-09-03T05:09:12;15.80;1.00
8372;DHT22;4223;48.724;8.982;2022-09-03T05:11:39;15.80;1.00
8372;DHT22;4223;48.724;8.982;2022-09-03T05:14:06;15.80;1.00
8372;DHT22;4223;48.724;8.982;2022-09-03T05:16:36;15.90;1.00
8372;DHT22;4223;48.724;8.982;2022-09-03T05:19:03;15.80;1.00
8372;DHT22;4223;48.724;8.982;2022-09-03T05:21:33;15.90;1.00
8372;DHT22;4223;48.724;8.982;2022-09-03T05:24:02;15.90;1.00
8372;DHT22;4223;48.724;8.982;2022-09-03T05:26:32;16.00;1.00
8372;DHT22;4223;48.724;8.982;2022-09-03T05:29:01;16.00;1.00
8372;DHT22;4223;48.724;8.982;2022-09-03T05:31:32;16.00;1.00
8372;DHT22;4223;48.724;8.982;2022-09-03T05:34:01;16.10;1.00
8372;DHT22;4223;48.724;8.982;2022-09-03T05:36:31;16.00;2.10
8372;DHT22;4223;48.724;8.982;2022-09-03T05:38:58;16.00;2.00
8372;DHT22;4223;48.724;8.982;2022-09-03T05:41:26;16.00;3.50
8372;DHT22;4223;48.724;8.982;2022-09-03T05:43:55;16.00;4.30
8372;DHT22;4223;48.724;8.982;2022-09-03T05:46:24;16.10;2.80
8372;DHT22;4223;48.724;8.982;2022-09-03T05:48:56;16.10;2.30
8372;DHT22;4223;48.724;8.982;2022-09-03T05:51:23;16.10;5.20
8372;DHT22;4223;48.724;8.982;2022-09-03T05:53:50;16.00;11.70
8372;DHT22;4223;48.724;8.982;2022-09-03T05:56:19;16.00;16.00
8372;DHT22;4223;48.724;8.982;2022-09-03T05:58:48;16.10;18.90
8372;DHT22;4223;48.724;8.982;2022-09-03T06:01:17;16.10;16.30
8372;DHT22;4223;48.724;8.982;2022-09-03T06:03:46;16.20;12.50
8372;DHT22;4223;48.724;8.982;2022-09-03T06:06:14;16.20;12.70
8372;DHT22;4223;48.724;8.982;2022-09-03T06:08:41;16.30;9.90
8372;DHT22;4223;48.724;8.982;2022-09-03T06:11:10;16.30;9.40
8372;DHT22;4223;48.724;8.982;2022-09-03T06:13:37;16.30;8.10
8372;DHT22;4223;48.724;8.982;2022-09-03T06:16:06;16.40;6.70
8372;DHT22;4223;48.724;8.982;2022-09-03T06:18:34;16.50;4.00
8372;DHT22;4223;48.724;8.982;2022-09-03T06:21:04;16.60;2.50
8372;DHT22;4223;48.724;8.982;2022-09-03T06:23:32;16.70;1.00
8372;DHT22;4223;48.724;8.982;2022-09-03T06:26:01;16.70;1.00
8372;DHT22;4223;48.724;8.982;2022-09-03T06:28:29;16.80;1.00
8372;DHT22;4223;48.724;8.982;2022-09-03T06:30:59;16.90;1.00
8372;DHT22;4223;48.724;8.982;2022-09-03T06:33:27;16.80;1.00
8372;DHT22;4223;48.724;8.982;2022-09-03T06:35:57;16.80;1.00
8372;DHT22;4223;48.724;8.982;2022-09-03T06:38:26;16.80;1.00
8372;DHT22;4223;48.724;8.982;2022-09-03T06:40:54;16.80;1.00
8372;DHT22;4223;48.724;8.982;2022-09-03T06:43:22;16.80;1.00
8372;DHT22;4223;48.724;8.982;2022-09-03T06:45:53;16.80;1.00
8372;DHT22;4223;48.724;8.982;2022-09-03T06:48:20;16.90;1.00
8372;DHT22;4223;48.724;8.982;2022-09-03T06:50:53;16.90;1.00
8372;DHT22;4223;48.724;8.982;2022-09-03T06:53:24;16.90;1.00
8372;DHT22;4223;48.724;8.982;2022-09-03T06:55:54;17.00;2.10
8372;DHT22;4223;48.724;8.982;2022-09-03T06:58:22;17.10;1.00
8372;DHT22;4223;48.724;8.982;2022-09-03T07:00:49;17.20;1.00
8372;DHT22;4223;48.724;8.982;2022-09-03T07:03:18;17.30;1.00
8372;DHT22;4223;48.724;8.982;2022-09-03T07:05:46;17.40;1.00
8372;DHT22;4223;48.724;8.982;2022-09-03T07:08:13;17.50;1.00
8372;DHT22;4223;48.724;8.982;2022-09-03T07:10:44;17.50;1.00
8372;DHT22;4223;48.724;8.982;2022-09-03T07:13:12;17.60;1.00
8372;DHT22;4223;48.724;8.982;2022-09-03T07:15:39;17.80;1.00
8372;DHT22;4223;48.724;8.982;2022-09-03T07:18:06;18.10;1.00
8372;DHT22;4223;48.724;8.982;2022-09-03T07:20:33;18.30;1.00
8372;DHT22;4223;48.724;8.982;2022-09-03T07:23:00;18.50;99.90
8372;DHT22;4223;48.724;8.982;2022-09-03T07:25:27;18.80;1.00
8372;DHT22;4223;48.724;8.982;2022-09-03T07:27:56;19.00;96.90
8372;DHT22;4223;48.724;8.982;2022-09-03T07:30:24;19.40;1.00
8372;DHT22;4223;48.724;8.982;2022-09-03T07:32:51;19.90;99.90
8372;DHT22;4223;48.724;8.982;2022-09-03T07:35:18;20.10;99.90
8372;DHT22;4223;48.724;8.982;2022-09-03T07:37:45;19.80;1.00
8372;DHT22;4223;48.724;8.982;2022-09-03T07:40:12;19.70;99.90
8372;DHT22;4223;48.724;8.982;2022-09-03T07:42:42;19.40;1.00
8372;DHT22;4223;48.724;8.982;2022-09-03T07:45:10;19.30;1.00
8372;DHT22;4223;48.724;8.982;2022-09-03T07:47:45;19.20;12.50
8372;DHT22;4223;48.724;8.982;2022-09-03T07:50:12;18.80;1.00
8372;DHT22;4223;48.724;8.982;2022-09-03T07:52:40;18.80;1.00
8372;DHT22;4223;48.724;8.982;2022-09-03T07:55:08;18.80;99.90
8372;DHT22;4223;48.724;8.982;2022-09-03T07:57:35;18.90;1.00
8372;DHT22;4223;48.724;8.982;2022-09-03T08:00:03;19.00;24.80
8372;DHT22;4223;48.724;8.982;2022-09-03T08:02:32;19.00;99.90
8372;DHT22;4223;48.724;8.982;2022-09-03T08:04:59;19.20;1.00
8372;DHT22;4223;48.724;8.982;2022-09-03T08:07:28;19.50;1.00
8372;DHT22;4223;48.724;8.982;2022-09-03T08:09:54;19.60;48.20
8372;DHT22;4223;48.724;8.982;2022-09-03T08:12:22;19.80;1.00
8372;DHT22;4223;48.724;8.982;2022-09-03T08:14:49;20.80;99.90
8372;DHT22;4223;48.724;8.982;2022-09-03T08:17:16;20.80;99.90
8372;DHT22;4223;48.724;8.982;2022-09-03T08:19:44;20.60;1.00
8372;DHT22;4223;48.724;8.982;2022-09-03T08:22:12;20.60;99.90
8372;DHT22;4223;48.724;8.982;2022-09-03T08:24:38;20.60;99.90
8372;DHT22;4223;48.724;8.982;2022-09-03T08:27:06;20.30;1.00
8372;DHT22;4223;48.724;8.982;2022-09-03T08:29:33;20.30;83.10
8372;DHT22;4223;48.724;8.982;2022-09-03T08:32:00;20.20;1.00
8372;DHT22;4223;48.724;8.982;2022-09-03T08:34:27;20.30;1.00
8372;DHT22;4223;48.724;8.982;2022-09-03T08:36:55;20.50;1.00
8372;DHT22;4223;48.724;8.982;2022-09-03T08:39:25;20.60;99.90
8372;DHT22;4223;48.724;8.982;2022-09-03T08:42:21;20.70;1.00
8372;DHT22;4223;48.724;8.982;2022-09-03T08:44:52;20.80;1.00
8372;DHT22;4223;48.724;8.982;2022-09-03T08:47:23;21.00;99.90
8372;DHT22;4223;48.724;8.982;2022-09-03T08:49:56;21.70;1.00
8372;DHT22;4223;48.724;8.982;2022-09-03T08:52:29;21.70;6.60
8372;DHT22;4223;48.724;8.982;2022-09-03T08:55:05;21.50;1.00
8372;DHT22;4223;48.724;8.982;2022-09-03T08:57:40;21.30;1.00
8372;DHT22;4223;48.724;8.982;2022-09-03T09:00:09;21.30;1.00
8372;DHT22;4223;48.724;8.982;2022-09-03T09:02:45;21.60;1.00
8372;DHT22;4223;48.724;8.982;2022-09-03T09:05:24;22.00;99.90
8372;DHT22;4223;48.724;8.982;2022-09-03T09:08:02;22.10;99.90
8372;DHT22;4223;48.724;8.982;2022-09-03T09:10:36;21.90;99.90
8372;DHT22;4223;48.724;8.982;2022-09-03T09:13:14;21.80;99.90
8372;DHT22;4223;48.724;8.982;2022-09-03T09:15:51;21.80;99.90
8372;DHT22;4223;48.724;8.982;2022-09-03T09:18:27;21.60;99.90
8372;DHT22;4223;48.724;8.982;2022-09-03T09:21:08;21.60;83.40
8372;DHT22;4223;48.724;8.982;2022-09-03T09:23:44;21.40;99.90
8372;DHT22;4223;48.724;8.982;2022-09-03T09:26:14;21.50;99.90
8372;DHT22;4223;48.724;8.982;2022-09-03T09:28:45;22.50;99.90
8372;DHT22;4223;48.724;8.982;2022-09-03T09:31:15;23.60;1.00
8372;DHT22;4223;48.724;8.982;2022-09-03T09:33:46;24.60;1.00
8372;DHT22;4223;48.724;8.982;2022-09-03T09:36:16;25.30;1.00
8372;DHT22;4223;48.724;8.982;2022-09-03T09:38:47;25.80;99.90
8372;DHT22;4223;48.724;8.982;2022-09-03T09:41:15;26.00;99.90
8372;DHT22;4223;48.724;8.982;2022-09-03T09:43:44;25.20;99.90
8372;DHT22;4223;48.724;8.982;2022-09-03T09:46:15;24.80;99.90
8372;DHT22;4223;48.724;8.982;2022-09-03T09:48:50;24.60;99.90
8372;DHT22;4223;48.724;8.982;2022-09-03T09:51:22;23.90;99.90
8372;DHT22;4223;48.724;8.982;2022-09-03T09:54:02;23.80;99.90
8372;DHT22;4223;48.724;8.982;2022-09-03T09:56:29;23.70;99.90
8372;DHT22;4223;48.724;8.982;2022-09-03T09:59:04;22.90;99.90
8372;DHT22;4223;48.724;8.982;2022-09-03T10:01:31;22.50;1.00
8372;DHT22;4223;48.724;8.982;2022-09-03T10:03:59;21.90;1.00
8372;DHT22;4223;48.724;8.982;2022-09-03T10:06:28;21.70;1.00
8372;DHT22;4223;48.724;8.982;2022-09-03T10:09:16;21.70;1.00
8372;DHT22;4223;48.724;8.982;2022-09-03T10:11:45;21.70;1.00
8372;DHT22;4223;48.724;8.982;2022-09-03T10:14:21;22.00;1.00
8372;DHT22;4223;48.724;8.982;2022-09-03T10:16:53;22.60;1.00
8372;DHT22;4223;48.724;8.982;2022-09-03T10:19:28;23.40;1.00
8372;DHT22;4223;48.724;8.982;2022-09-03T10:22:02;24.50;99.90
8372;DHT22;4223;48.724;8.982;2022-09-03T10:24:40;25.50;99.90
8372;DHT22;4223;48.724;8.982;2022-09-03T10:27:14;26.20;99.90
8372;DHT22;4223;48.724;8.982;2022-09-03T10:29:42;26.60;99.90
8372;DHT22;4223;48.724;8.982;2022-09-03T10:32:30;26.50;99.90
8372;DHT22;4223;48.724;8.982;2022-09-03T10:35:04;26.50;99.90
8372;DHT22;4223;48.724;8.982;2022-09-03T10:37:39;27.00;99.90
8372;DHT22;4223;48.724;8.982;2022-09-03T10:40:19;26.80;99.90
8372;DHT22;4223;48.724;8.982;2022-09-03T10:43:04;26.30;99.90
8372;DHT22;4223;48.724;8.982;2022-09-03T10:45:39;25.70;99.90
8372;DHT22;4223;48.724;8.982;2022-09-03T10:48:27;25.60;99.90
8372;DHT22;4223;48.724;8.982;2022-09-03T10:51:04;24.80;99.90
8372;DHT22;4223;48.724;8.982;2022-09-03T10:53:43;24.50;99.90
8372;DHT22;4223;48.724;8.982;2022-09-03T10:56:18;24.50;99.90
8372;DHT22;4223;48.724;8.982;2022-09-03T10:58:57;24.30;99.90
8372;DHT22;4223;48.724;8.982;2022-09-03T11:01:30;23.80;99.90
8372;DHT22;4223;48.724;8.982;2022-09-03T11:04:16;23.60;99.90
8372;DHT22;4223;48.724;8.982;2022-09-03T11:06:50;23.40;99.90
8372;DHT22;4223;48.724;8.982;2022-09-03T11:09:22;23.00;99.90
8372;DHT22;4223;48.724;8.982;2022-09-03T11:11:54;22.70;99.90
8372;DHT22;4223;48.724;8.982;2022-09-03T11:14:31;22.70;99.90
8372;DHT22;4223;48.724;8.982;2022-09-03T11:17:04;22.70;99.90
8372;DHT22;4223;48.724;8.982;2022-09-03T11:19:36;22.60;99.90
8372;DHT22;4223;48.724;8.982;2022-09-03T11:22:08;22.50;99.90
8372;DHT22;4223;48.724;8.982;2022-09-03T11:24:38;22.30;99.90
8372;DHT22;4223;48.724;8.982;2022-09-03T11:27:19;22.10;1.00
8372;DHT22;4223;48.724;8.982;2022-09-03T11:29:56;22.10;1.00
8372;DHT22;4223;48.724;8.982;2022-09-03T11:32:38;21.90;1.00
8372;DHT22;4223;48.724;8.982;2022-09-03T11:35:13;21.90;1.00
8372;DHT22;4223;48.724;8.982;2022-09-03T11:37:49;21.70;1.00
8372;DHT22;4223;48.724;8.982;2022-09-03T11:40:18;21.50;1.00
8372;DHT22;4223;48.724;8.982;2022-09-03T11:42:47;21.40;99.90
8372;DHT22;4223;48.724;8.982;2022-09-03T11:45:23;21.30;99.90
8372;DHT22;4223;48.724;8.982;2022-09-03T11:47:59;21.20;99.90
8372;DHT22;4223;48.724;8.982;2022-09-03T11:50:27;21.20;99.90
8372;DHT22;4223;48.724;8.982;2022-09-03T11:53:21;21.00;99.90
8372;DHT22;4223;48.724;8.982;2022-09-03T11:55:52;20.90;99.90
8372;DHT22;4223;48.724;8.982;2022-09-03T11:58:24;20.80;1.00
8372;DHT22;4223;48.724;8.982;2022-09-03T12:00:52;20.70;1.00
8372;DHT22;4223;48.724;8.982;2022-09-03T12:03:23;20.60;1.00
8372;DHT22;4223;48.724;8.982;2022-09-03T12:06:07;20.50;99.90
8372;DHT22;4223;48.724;8.982;2022-09-03T12:08:57;20.50;99.90
8372;DHT22;4223;48.724;8.982;2022-09-03T12:11:37;20.20;99.90
8372;DHT22;4223;48.724;8.982;2022-09-03T12:14:15;19.70;1.00
8372;DHT22;4223;48.724;8.982;2022-09-03T12:17:14;18.90;1.00
8372;DHT22;4223;48.724;8.982;2022-09-03T12:19:49;18.50;1.00
8372;DHT22;4223;48.724;8.982;2022-09-03T12:22:19;17.70;62.70
8372;DHT22;4223;48.724;8.982;2022-09-03T12:24:46;17.20;83.10
8372;DHT22;4223;48.724;8.982;2022-09-03T12:27:17;16.70;93.70
8372;DHT22;4223;48.724;8.982;2022-09-03T12:29:55;16.50;99.90
8372;DHT22;4223;48.724;8.982;2022-09-03T12:32:25;16.30;99.90
8372;DHT22;4223;48.724;8.982;2022-09-03T12:34:53;16.10;99.90
8372;DHT22;4223;48.724;8.982;2022-09-03T12:37:22;16.00;99.90
8372;DHT22;4223;48.724;8.982;2022-09-03T12:39:50;16.10;99.90
8372;DHT22;4223;48.724;8.982;2022-09-03T12:42:21;16.10;99.90
8372;DHT22;4223;48.724;8.982;2022-09-03T12:44:48;16.10;99.90
8372;DHT22;4223;48.724;8.982;2022-09-03T12:47:19;16.10;99.90
8372;DHT22;4223;48.724;8.982;2022-09-03T12:49:47;15.90;99.90
8372;DHT22;4223;48.724;8.982;2022-09-03T12:52:20;16.20;99.90
8372;DHT22;4223;48.724;8.982;2022-09-03T12:54:52;16.20;99.90
8372;DHT22;4223;48.724;8.982;2022-09-03T12:57:23;16.20;99.90
8372;DHT22;4223;48.724;8.982;2022-09-03T12:59:55;16.20;99.90
8372;DHT22;4223;48.724;8.982;2022-09-03T13:02:27;16.20;99.90
8372;DHT22;4223;48.724;8.982;2022-09-03T13:04:56;16.40;99.90
8372;DHT22;4223;48.724;8.982;2022-09-03T13:07:26;16.50;99.90
8372;DHT22;4223;48.724;8.982;2022-09-03T13:10:01;16.60;99.90
8372;DHT22;4223;48.724;8.982;2022-09-03T13:12:33;16.80;99.90
8372;DHT22;4223;48.724;8.982;2022-09-03T13:15:09;17.10;99.90
8372;DHT22;4223;48.724;8.982;2022-09-03T13:18:02;17.30;99.90
8372;DHT22;4223;48.724;8.982;2022-09-03T13:20:41;18.00;99.90
8372;DHT22;4223;48.724;8.982;2022-09-03T13:23:29;18.70;99.90
8372;DHT22;4223;48.724;8.982;2022-09-03T13:26:06;18.90;99.90
8372;DHT22;4223;48.724;8.982;2022-09-03T13:28:45;19.00;85.80
8372;DHT22;4223;48.724;8.982;2022-09-03T13:31:24;19.00;90.60
8372;DHT22;4223;48.724;8.982;2022-09-03T13:33:58;19.00;91.10
8372;DHT22;4223;48.724;8.982;2022-09-03T13:36:32;18.70;70.80
8372;DHT22;4223;48.724;8.982;2022-09-03T13:39:02;18.80;89.30
8372;DHT22;4223;48.724;8.982;2022-09-03T13:41:35;18.70;59.00
8372;DHT22;4223;48.724;8.982;2022-09-03T13:44:07;18.60;64.40
8372;DHT22;4223;48.724;8.982;2022-09-03T13:46:42;18.50;70.50
8372;DHT22;4223;48.724;8.982;2022-09-03T13:49:29;18.40;73.90
8372;DHT22;4223;48.724;8.982;2022-09-03T13:52:20;18.50;83.40
8372;DHT22;4223;48.724;8.982;2022-09-03T13:54:52;18.80;80.60
8372;DHT22;4223;48.724;8.982;2022-09-03T13:57:29;19.30;44.60
8372;DHT22;4223;48.724;8.982;2022-09-03T14:00:02;19.90;1.00
8372;DHT22;4223;48.724;8.982;2022-09-03T14:02:36;20.30;1.00
8372;DHT22;4223;48.724;8.982;2022-09-03T14:05:13;20.50;1.00
8372;DHT22;4223;48.724;8.982;2022-09-03T14:07:50;20.40;1.00
8372;DHT22;4223;48.724;8.982;2022-09-03T14:10:23;19.90;1.00
8372;DHT22;4223;48.724;8.982;2022-09-03T14:13:05;20.10;1.00
8372;DHT22;4223;48.724;8.982;2022-09-03T14:15:35;20.30;1.00
8372;DHT22;4223;48.724;8.982;2022-09-03T14:18:12;20.10;1.00
8372;DHT22;4223;48.724;8.982;2022-09-03T14:20:45;20.10;1.00
8372;DHT22;4223;48.724;8.982;2022-09-03T14:23:25;20.10;1.00
8372;DHT22;4223;48.724;8.982;2022-09-03T14:25:55;19.80;1.00
8372;DHT22;4223;48.724;8.982;2022-09-03T14:28:29;19.50;1.00
8372;DHT22;4223;48.724;8.982;2022-09-03T14:31:05;19.50;21.20
8372;DHT22;4223;48.724;8.982;2022-09-03T14:33:39;19.50;9.90
8372;DHT22;4223;48.724;8.982;2022-09-03T14:36:17;19.60;1.00
8372;DHT22;4223;48.724;8.982;2022-09-03T14:39:11;19.60;1.00
8372;DHT22;4223;48.724;8.982;2022-09-03T14:48:13;20.10;1.00
8372;DHT22;4223;48.724;8.982;2022-09-03T14:51:02;20.20;1.00
8372;DHT22;4223;48.724;8.982;2022-09-03T14:53:54;20.30;1.00
8372;DHT22;4223;48.724;8.982;2022-09-03T14:56:36;20.10;1.00
8372;DHT22;4223;48.724;8.982;2022-09-03T14:59:31;20.20;1.00
8372;DHT22;4223;48.724;8.982;2022-09-03T15:02:14;20.40;1.00
8372;DHT22;4223;48.724;8.982;2022-09-03T15:04:50;20.30;1.00
8372;DHT22;4223;48.724;8.982;2022-09-03T15:07:28;20.50;1.00
8372;DHT22;4223;48.724;8.982;2022-09-03T15:10:03;20.90;99.90
8372;DHT22;4223;48.724;8.982;2022-09-03T15:12:36;20.80;1.00
8372;DHT22;4223;48.724;8.982;2022-09-03T15:15:09;20.80;1.00
8372;DHT22;4223;48.724;8.982;2022-09-03T15:17:59;21.30;99.90
8372;DHT22;4223;48.724;8.982;2022-09-03T15:20:47;21.30;1.00
8372;DHT22;4223;48.724;8.982;2022-09-03T15:23:24;21.60;1.00
8372;DHT22;4223;48.724;8.982;2022-09-03T15:26:34;21.50;99.90
8372;DHT22;4223;48.724;8.982;2022-09-03T15:29:26;21.70;1.00
8372;DHT22;4223;48.724;8.982;2022-09-03T15:32:04;21.80;99.90
8372;DHT22;4223;48.724;8.982;2022-09-03T15:34:44;21.30;1.00
8372;DHT22;4223;48.724;8.982;2022-09-03T15:37:20;21.40;99.90
8372;DHT22;4223;48.724;8.982;2022-09-03T15:40:00;21.20;1.00
8372;DHT22;4223;48.724;8.982;2022-09-03T15:42:29;21.00;1.00
8372;DHT22;4223;48.724;8.982;2022-09-03T15:45:03;20.70;1.00
8372;DHT22;4223;48.724;8.982;2022-09-03T15:47:38;20.70;1.00
8372;DHT22;4223;48.724;8.982;2022-09-03T15:50:14;21.20;1.00
8372;DHT22;4223;48.724;8.982;2022-09-03T15:52:51;21.60;90.80
8372;DHT22;4223;48.724;8.982;2022-09-03T15:55:27;21.80;99.90
8372;DHT22;4223;48.724;8.982;2022-09-03T15:58:02;21.60;1.00
8372;DHT22;4223;48.724;8.982;2022-09-03T16:00:52;21.40;1.00
8372;DHT22;4223;48.724;8.982;2022-09-03T16:03:33;21.00;1.00
8372;DHT22;4223;48.724;8.982;2022-09-03T16:06:07;20.70;1.00
8372;DHT22;4223;48.724;8.982;2022-09-03T16:08:48;20.50;1.00
8372;DHT22;4223;48.724;8.982;2022-09-03T16:11:23;20.30;13.40
8372;DHT22;4223;48.724;8.982;2022-09-03T16:14:04;20.20;1.00
8372;DHT22;4223;48.724;8.982;2022-09-03T16:16:47;20.20;7.30
8372;DHT22;4223;48.724;8.982;2022-09-03T16:19:22;20.10;42.50
8372;DHT22;4223;48.724;8.982;2022-09-03T16:21:57;20.00;21.70
8372;DHT22;4223;48.724;8.982;2022-09-03T16:24:31;20.00;63.20
8372;DHT22;4223;48.724;8.982;2022-09-03T16:27:02;19.90;83.50
8372;DHT22;4223;48.724;8.982;2022-09-03T16:29:34;19.80;90.40
8372;DHT22;4223;48.724;8.982;2022-09-03T16:32:17;19.60;95.70
8372;DHT22;4223;48.724;8.982;2022-09-03T16:34:56;19.60;96.60
8372;DHT22;4223;48.724;8.982;2022-09-03T16:37:31;19.50;99.90
8372;DHT22;4223;48.724;8.982;2022-09-03T16:40:11;19.50;94.20
8372;DHT22;4223;48.724;8.982;2022-09-03T16:42:43;19.60;99.90
8372;DHT22;4223;48.724;8.982;2022-09-03T16:45:23;19.60;99.90
8372;DHT22;4223;48.724;8.982;2022-09-03T16:48:10;19.70;99.90
8372;DHT22;4223;48.724;8.982;2022-09-03T16:50:54;19.70;99.90
8372;DHT22;4223;48.724;8.982;2022-09-03T16:53:39;19.70;99.90
8372;DHT22;4223;48.724;8.982;2022-09-03T16:56:21;19.80;99.90